sensor_id;sensor_type;location;lat;lon;timestamp;P1;durP1;ratioP1;P2;durP2;ratioP2
77880;SDS011;67077;50.298;18.996;2023-07-28T00:00:46;4.30;;;2.70;;
77880;SDS011;67077;50.298;18.996;2023-07-28T00:03:34;3.40;;;2.40;;
77880;SDS011;67077;50.298;18.996;2023-07-28T00:06:01;3.70;;;2.60;;
77880;SDS011;67077;50.298;18.996;2023-07-28T00:08:28;3.60;;;2.70;;
77880;SDS011;67077;50.298;18.996;2023-07-28T00:10:55;4.30;;;2.70;;
77880;SDS011;67077;50.298;18.996;2023-07-28T00:13:21;6.50;;;2.50;;
77880;SDS011;67077;50.298;18.996;2023-07-28T00:15:48;4.60;;;2.50;;
77880;SDS011;67077;50.298;18.996;2023-07-28T00:18:16;6.00;;;2.50;;
77880;SDS011;67077;50.298;18.996;2023-07-28T00:20:44;4.50;;;2.40;;
77880;SDS011;67077;50.298;18.996;2023-07-28T00:23:13;3.40;;;2.40;;
77880;SDS011;67077;50.298;18.996;2023-07-28T00:25:40;4.50;;;2.30;;
77880;SDS011;67077;50.298;18.996;2023-07-28T00:28:07;3.40;;;2.10;;
77880;SDS011;67077;50.298;18.996;2023-07-28T00:30:33;3.50;;;2.60;;
77880;SDS011;67077;50.298;18.996;2023-07-28T00:33:00;8.30;;;2.60;;
77880;SDS011;67077;50.298;18.996;2023-07-28T00:35:27;5.00;;;2.60;;
77880;SDS011;67077;50.298;18.996;2023-07-28T00:37:53;3.20;;;2.10;;
77880;SDS011;67077;50.298;18.996;2023-07-28T00:40:21;4.90;;;2.30;;
77880;SDS011;67077;50.298;18.996;2023-07-28T00:42:49;3.40;;;2.30;;
77880;SDS011;67077;50.298;18.996;2023-07-28T00:45:16;3.20;;;2.40;;
77880;SDS011;67077;50.298;18.996;2023-07-28T00:47:43;5.20;;;2.20;;
77880;SDS011;67077;50.298;18.996;2023-07-28T00:50:11;5.90;;;2.70;;
77880;SDS011;67077;50.298;18.996;2023-07-28T00:52:38;4.20;;;2.40;;
77880;SDS011;67077;50.298;18.996;2023-07-28T00:55:05;5.80;;;2.30;;
77880;SDS011;67077;50.298;18.996;2023-07-28T00:57:33;4.10;;;2.20;;
77880;SDS011;67077;50.298;18.996;2023-07-28T01:00:00;5.10;;;2.50;;
77880;SDS011;67077;50.298;18.996;2023-07-28T01:02:28;4.40;;;2.60;;
77880;SDS011;67077;50.298;18.996;2023-07-28T01:04:55;3.90;;;2.50;;
77880;SDS011;67077;50.298;18.996;2023-07-28T01:07:25;3.60;;;2.40;;
77880;SDS011;67077;50.298;18.996;2023-07-28T01:09:56;4.90;;;2.60;;
77880;SDS011;67077;50.298;18.996;2023-07-28T01:12:30;5.30;;;2.30;;
77880;SDS011;67077;50.298;18.996;2023-07-28T01:14:57;2.80;;;2.20;;
77880;SDS011;67077;50.298;18.996;2023-07-28T01:17:23;4.50;;;2.60;;
77880;SDS011;67077;50.298;18.996;2023-07-28T01:19:51;4.30;;;2.30;;
77880;SDS011;67077;50.298;18.996;2023-07-28T01:25:11;3.60;;;2.30;;
77880;SDS011;67077;50.298;18.996;2023-07-28T01:27:43;3.60;;;2.40;;
77880;SDS011;67077;50.298;18.996;2023-07-28T01:30:10;3.40;;;2.20;;
77880;SDS011;67077;50.298;18.996;2023-07-28T01:32:37;5.30;;;2.30;;
77880;SDS011;67077;50.298;18.996;2023-07-28T01:35:04;3.50;;;2.10;;
77880;SDS011;67077;50.298;18.996;2023-07-28T01:37:31;4.10;;;2.20;;
77880;SDS011;67077;50.298;18.996;2023-07-28T01:39:58;3.50;;;2.60;;
77880;SDS011;67077;50.298;18.996;2023-07-28T01:42:25;2.90;;;2.30;;
77880;SDS011;67077;50.298;18.996;2023-07-28T01:44:55;3.70;;;2.20;;
77880;SDS011;67077;50.298;18.996;2023-07-28T01:47:22;5.10;;;2.50;;
77880;SDS011;67077;50.298;18.996;2023-07-28T01:49:49;4.00;;;2.40;;
77880;SDS011;67077;50.298;18.996;2023-07-28T01:52:16;4.80;;;2.20;;
77880;SDS011;67077;50.298;18.996;2023-07-28T01:54:43;4.30;;;2.40;;
77880;SDS011;67077;50.298;18.996;2023-07-28T01:57:11;4.00;;;2.50;;
77880;SDS011;67077;50.298;18.996;2023-07-28T01:59:37;6.20;;;2.30;;
77880;SDS011;67077;50.298;18.996;2023-07-28T02:02:04;4.70;;;2.20;;
77880;SDS011;67077;50.298;18.996;2023-07-28T02:04:32;4.10;;;2.50;;
77880;SDS011;67077;50.298;18.996;2023-07-28T02:07:00;7.30;;;2.70;;
77880;SDS011;67077;50.298;18.996;2023-07-28T02:09:27;6.00;;;2.70;;
77880;SDS011;67077;50.298;18.996;2023-07-28T02:11:54;6.60;;;2.80;;
77880;SDS011;67077;50.298;18.996;2023-07-28T02:14:20;5.00;;;2.80;;
77880;SDS011;67077;50.298;18.996;2023-07-28T02:16:47;5.40;;;2.60;;
77880;SDS011;67077;50.298;18.996;2023-07-28T02:19:14;8.00;;;3.10;;
77880;SDS011;67077;50.298;18.996;2023-07-28T02:21:40;3.60;;;2.60;;
77880;SDS011;67077;50.298;18.996;2023-07-28T02:24:07;5.60;;;2.70;;
77880;SDS011;67077;50.298;18.996;2023-07-28T02:26:33;3.60;;;2.50;;
77880;SDS011;67077;50.298;18.996;2023-07-28T02:29:00;3.40;;;2.30;;
77880;SDS011;67077;50.298;18.996;2023-07-28T02:31:27;4.70;;;2.50;;
77880;SDS011;67077;50.298;18.996;2023-07-28T02:33:55;3.10;;;2.20;;
77880;SDS011;67077;50.298;18.996;2023-07-28T02:36:22;5.20;;;2.40;;
77880;SDS011;67077;50.298;18.996;2023-07-28T02:38:49;4.80;;;2.30;;
77880;SDS011;67077;50.298;18.996;2023-07-28T02:41:16;3.80;;;2.60;;
77880;SDS011;67077;50.298;18.996;2023-07-28T02:43:43;6.80;;;2.40;;
77880;SDS011;67077;50.298;18.996;2023-07-28T02:46:10;4.30;;;2.70;;
77880;SDS011;67077;50.298;18.996;2023-07-28T02:48:37;3.90;;;2.60;;
77880;SDS011;67077;50.298;18.996;2023-07-28T02:51:03;3.40;;;2.20;;
77880;SDS011;67077;50.298;18.996;2023-07-28T02:53:30;5.20;;;2.50;;
77880;SDS011;67077;50.298;18.996;2023-07-28T02:55:58;3.40;;;2.40;;
77880;SDS011;67077;50.298;18.996;2023-07-28T02:58:24;4.80;;;2.30;;
77880;SDS011;67077;50.298;18.996;2023-07-28T03:00:51;4.10;;;2.50;;
77880;SDS011;67077;50.298;18.996;2023-07-28T03:03:18;4.60;;;2.30;;
77880;SDS011;67077;50.298;18.996;2023-07-28T03:05:45;5.10;;;2.40;;
77880;SDS011;67077;50.298;18.996;2023-07-28T03:08:12;3.80;;;2.40;;
77880;SDS011;67077;50.298;18.996;2023-07-28T03:10:42;4.80;;;2.40;;
77880;SDS011;67077;50.298;18.996;2023-07-28T03:13:09;4.10;;;2.40;;
77880;SDS011;67077;50.298;18.996;2023-07-28T03:15:36;3.60;;;2.40;;
77880;SDS011;67077;50.298;18.996;2023-07-28T03:18:03;4.50;;;2.70;;
77880;SDS011;67077;50.298;18.996;2023-07-28T03:20:30;3.50;;;2.60;;
77880;SDS011;67077;50.298;18.996;2023-07-28T03:22:57;4.50;;;2.90;;
77880;SDS011;67077;50.298;18.996;2023-07-28T03:25:24;4.00;;;2.70;;
77880;SDS011;67077;50.298;18.996;2023-07-28T03:27:51;5.40;;;2.70;;
77880;SDS011;67077;50.298;18.996;2023-07-28T03:30:19;5.00;;;2.70;;
77880;SDS011;67077;50.298;18.996;2023-07-28T03:32:46;5.90;;;2.70;;
77880;SDS011;67077;50.298;18.996;2023-07-28T03:35:13;4.90;;;3.00;;
77880;SDS011;67077;50.298;18.996;2023-07-28T03:37:40;7.50;;;2.50;;
77880;SDS011;67077;50.298;18.996;2023-07-28T03:40:06;6.70;;;3.00;;
77880;SDS011;67077;50.298;18.996;2023-07-28T03:42:34;4.10;;;2.60;;
77880;SDS011;67077;50.298;18.996;2023-07-28T03:45:00;5.10;;;2.80;;
77880;SDS011;67077;50.298;18.996;2023-07-28T03:47:27;4.30;;;2.80;;
77880;SDS011;67077;50.298;18.996;2023-07-28T03:49:54;7.20;;;2.60;;
77880;SDS011;67077;50.298;18.996;2023-07-28T03:52:21;5.00;;;3.00;;
77880;SDS011;67077;50.298;18.996;2023-07-28T03:54:48;4.50;;;2.80;;
77880;SDS011;67077;50.298;18.996;2023-07-28T03:57:15;5.10;;;3.00;;
77880;SDS011;67077;50.298;18.996;2023-07-28T03:59:42;4.30;;;2.80;;
77880;SDS011;67077;50.298;18.996;2023-07-28T04:02:09;5.30;;;2.90;;
77880;SDS011;67077;50.298;18.996;2023-07-28T04:04:35;4.60;;;2.80;;
77880;SDS011;67077;50.298;18.996;2023-07-28T04:07:03;4.50;;;2.60;;
77880;SDS011;67077;50.298;18.996;2023-07-28T04:09:30;6.10;;;2.70;;
77880;SDS011;67077;50.298;18.996;2023-07-28T04:11:57;4.90;;;2.80;;
77880;SDS011;67077;50.298;18.996;2023-07-28T04:14:24;4.60;;;2.70;;
77880;SDS011;67077;50.298;18.996;2023-07-28T04:16:51;5.30;;;2.60;;
77880;SDS011;67077;50.298;18.996;2023-07-28T04:19:18;4.70;;;2.50;;
77880;SDS011;67077;50.298;18.996;2023-07-28T04:21:45;4.10;;;2.40;;
77880;SDS011;67077;50.298;18.996;2023-07-28T04:24:12;4.30;;;2.50;;
77880;SDS011;67077;50.298;18.996;2023-07-28T04:26:39;5.50;;;2.80;;
77880;SDS011;67077;50.298;18.996;2023-07-28T04:29:06;5.70;;;2.70;;
77880;SDS011;67077;50.298;18.996;2023-07-28T04:31:33;4.20;;;2.40;;
77880;SDS011;67077;50.298;18.996;2023-07-28T04:34:02;4.80;;;2.40;;
77880;SDS011;67077;50.298;18.996;2023-07-28T04:36:30;6.90;;;2.30;;
77880;SDS011;67077;50.298;18.996;2023-07-28T04:38:57;3.70;;;2.40;;
77880;SDS011;67077;50.298;18.996;2023-07-28T04:41:24;5.80;;;2.50;;
77880;SDS011;67077;50.298;18.996;2023-07-28T04:43:52;6.80;;;2.50;;
77880;SDS011;67077;50.298;18.996;2023-07-28T04:46:20;3.40;;;2.30;;
77880;SDS011;67077;50.298;18.996;2023-07-28T04:48:46;4.50;;;2.70;;
77880;SDS011;67077;50.298;18.996;2023-07-28T04:51:14;4.30;;;2.40;;
77880;SDS011;67077;50.298;18.996;2023-07-28T04:53:41;3.70;;;2.30;;
77880;SDS011;67077;50.298;18.996;2023-07-28T04:56:11;4.50;;;2.70;;
77880;SDS011;67077;50.298;18.996;2023-07-28T04:58:38;3.90;;;2.60;;
77880;SDS011;67077;50.298;18.996;2023-07-28T05:01:05;4.60;;;2.40;;
77880;SDS011;67077;50.298;18.996;2023-07-28T05:03:35;7.40;;;2.20;;
77880;SDS011;67077;50.298;18.996;2023-07-28T05:06:03;3.40;;;2.00;;
77880;SDS011;67077;50.298;18.996;2023-07-28T05:08:32;4.40;;;2.30;;
77880;SDS011;67077;50.298;18.996;2023-07-28T05:10:59;3.70;;;2.30;;
77880;SDS011;67077;50.298;18.996;2023-07-28T05:13:26;4.00;;;2.40;;
77880;SDS011;67077;50.298;18.996;2023-07-28T05:15:52;4.80;;;2.50;;
77880;SDS011;67077;50.298;18.996;2023-07-28T05:18:20;3.30;;;2.20;;
77880;SDS011;67077;50.298;18.996;2023-07-28T05:20:46;4.70;;;2.40;;
77880;SDS011;67077;50.298;18.996;2023-07-28T05:23:14;3.10;;;2.30;;
77880;SDS011;67077;50.298;18.996;2023-07-28T05:25:41;4.20;;;2.40;;
77880;SDS011;67077;50.298;18.996;2023-07-28T05:28:09;4.30;;;2.40;;
77880;SDS011;67077;50.298;18.996;2023-07-28T05:30:37;3.50;;;2.50;;
77880;SDS011;67077;50.298;18.996;2023-07-28T05:33:04;4.50;;;2.20;;
77880;SDS011;67077;50.298;18.996;2023-07-28T05:35:40;5.10;;;2.50;;
77880;SDS011;67077;50.298;18.996;2023-07-28T05:38:07;6.20;;;2.70;;
77880;SDS011;67077;50.298;18.996;2023-07-28T05:40:34;8.10;;;2.70;;
77880;SDS011;67077;50.298;18.996;2023-07-28T05:43:01;4.90;;;2.80;;
77880;SDS011;67077;50.298;18.996;2023-07-28T05:45:29;6.40;;;2.70;;
77880;SDS011;67077;50.298;18.996;2023-07-28T05:47:56;6.00;;;2.60;;
77880;SDS011;67077;50.298;18.996;2023-07-28T05:50:22;3.70;;;2.60;;
77880;SDS011;67077;50.298;18.996;2023-07-28T05:52:49;3.70;;;2.50;;
77880;SDS011;67077;50.298;18.996;2023-07-28T05:55:16;3.10;;;2.40;;
77880;SDS011;67077;50.298;18.996;2023-07-28T05:57:43;3.90;;;2.30;;
77880;SDS011;67077;50.298;18.996;2023-07-28T06:00:10;4.50;;;2.60;;
77880;SDS011;67077;50.298;18.996;2023-07-28T06:02:38;3.80;;;2.60;;
77880;SDS011;67077;50.298;18.996;2023-07-28T06:05:06;4.30;;;2.90;;
77880;SDS011;67077;50.298;18.996;2023-07-28T06:07:34;4.80;;;2.80;;
77880;SDS011;67077;50.298;18.996;2023-07-28T06:10:01;5.00;;;2.60;;
77880;SDS011;67077;50.298;18.996;2023-07-28T06:12:28;7.00;;;3.00;;
77880;SDS011;67077;50.298;18.996;2023-07-28T06:14:55;6.00;;;2.90;;
77880;SDS011;67077;50.298;18.996;2023-07-28T06:17:24;5.80;;;3.10;;
77880;SDS011;67077;50.298;18.996;2023-07-28T06:19:54;6.20;;;3.10;;
77880;SDS011;67077;50.298;18.996;2023-07-28T06:22:21;4.10;;;2.50;;
77880;SDS011;67077;50.298;18.996;2023-07-28T06:24:50;4.40;;;2.80;;
77880;SDS011;67077;50.298;18.996;2023-07-28T06:27:16;4.40;;;2.80;;
77880;SDS011;67077;50.298;18.996;2023-07-28T06:29:43;4.00;;;2.80;;
77880;SDS011;67077;50.298;18.996;2023-07-28T06:32:11;4.80;;;2.70;;
77880;SDS011;67077;50.298;18.996;2023-07-28T06:34:39;7.90;;;3.00;;
77880;SDS011;67077;50.298;18.996;2023-07-28T06:37:06;5.60;;;2.80;;
77880;SDS011;67077;50.298;18.996;2023-07-28T06:39:33;3.60;;;2.70;;
77880;SDS011;67077;50.298;18.996;2023-07-28T06:42:00;4.70;;;2.90;;
77880;SDS011;67077;50.298;18.996;2023-07-28T06:44:28;4.00;;;2.70;;
77880;SDS011;67077;50.298;18.996;2023-07-28T06:46:55;5.40;;;3.00;;
77880;SDS011;67077;50.298;18.996;2023-07-28T06:49:22;5.10;;;3.00;;
77880;SDS011;67077;50.298;18.996;2023-07-28T06:51:50;4.10;;;2.80;;
77880;SDS011;67077;50.298;18.996;2023-07-28T06:54:19;4.90;;;3.10;;
77880;SDS011;67077;50.298;18.996;2023-07-28T06:56:47;6.90;;;3.50;;
77880;SDS011;67077;50.298;18.996;2023-07-28T06:59:14;6.20;;;3.30;;
77880;SDS011;67077;50.298;18.996;2023-07-28T07:01:42;5.90;;;3.00;;
77880;SDS011;67077;50.298;18.996;2023-07-28T07:04:10;4.70;;;3.20;;
77880;SDS011;67077;50.298;18.996;2023-07-28T07:06:39;4.60;;;2.90;;
77880;SDS011;67077;50.298;18.996;2023-07-28T07:09:07;5.10;;;3.50;;
77880;SDS011;67077;50.298;18.996;2023-07-28T07:11:35;5.80;;;3.40;;
77880;SDS011;67077;50.298;18.996;2023-07-28T07:14:03;6.00;;;3.20;;
77880;SDS011;67077;50.298;18.996;2023-07-28T07:16:32;4.40;;;3.30;;
77880;SDS011;67077;50.298;18.996;2023-07-28T07:19:01;6.50;;;3.70;;
77880;SDS011;67077;50.298;18.996;2023-07-28T07:21:30;4.90;;;3.60;;
77880;SDS011;67077;50.298;18.996;2023-07-28T07:23:57;5.70;;;3.70;;
77880;SDS011;67077;50.298;18.996;2023-07-28T07:26:25;5.10;;;3.40;;
77880;SDS011;67077;50.298;18.996;2023-07-28T07:28:52;5.90;;;3.50;;
77880;SDS011;67077;50.298;18.996;2023-07-28T07:31:21;8.80;;;3.50;;
77880;SDS011;67077;50.298;18.996;2023-07-28T07:33:47;10.50;;;3.80;;
77880;SDS011;67077;50.298;18.996;2023-07-28T07:36:14;5.40;;;3.50;;
77880;SDS011;67077;50.298;18.996;2023-07-28T07:38:44;8.80;;;3.80;;
77880;SDS011;67077;50.298;18.996;2023-07-28T07:41:15;8.00;;;3.60;;
77880;SDS011;67077;50.298;18.996;2023-07-28T07:43:45;4.80;;;3.10;;
77880;SDS011;67077;50.298;18.996;2023-07-28T07:46:16;5.90;;;3.00;;
77880;SDS011;67077;50.298;18.996;2023-07-28T07:48:43;7.70;;;3.30;;
77880;SDS011;67077;50.298;18.996;2023-07-28T07:51:09;6.10;;;3.60;;
77880;SDS011;67077;50.298;18.996;2023-07-28T07:53:37;5.80;;;3.50;;
77880;SDS011;67077;50.298;18.996;2023-07-28T07:56:04;4.50;;;3.10;;
77880;SDS011;67077;50.298;18.996;2023-07-28T07:58:32;6.70;;;3.20;;
77880;SDS011;67077;50.298;18.996;2023-07-28T08:00:59;5.30;;;3.70;;
77880;SDS011;67077;50.298;18.996;2023-07-28T08:03:26;5.90;;;4.10;;
77880;SDS011;67077;50.298;18.996;2023-07-28T08:05:53;5.40;;;3.90;;
77880;SDS011;67077;50.298;18.996;2023-07-28T08:08:20;6.20;;;4.30;;
77880;SDS011;67077;50.298;18.996;2023-07-28T08:10:48;7.80;;;4.50;;
77880;SDS011;67077;50.298;18.996;2023-07-28T08:13:16;5.90;;;3.90;;
77880;SDS011;67077;50.298;18.996;2023-07-28T08:15:43;7.30;;;4.40;;
77880;SDS011;67077;50.298;18.996;2023-07-28T08:18:13;6.80;;;4.20;;
77880;SDS011;67077;50.298;18.996;2023-07-28T08:20:41;7.70;;;4.40;;
77880;SDS011;67077;50.298;18.996;2023-07-28T08:23:09;6.30;;;4.40;;
77880;SDS011;67077;50.298;18.996;2023-07-28T08:25:37;7.00;;;4.00;;
77880;SDS011;67077;50.298;18.996;2023-07-28T08:28:04;7.50;;;4.30;;
77880;SDS011;67077;50.298;18.996;2023-07-28T08:30:31;8.90;;;4.50;;
77880;SDS011;67077;50.298;18.996;2023-07-28T08:32:58;5.90;;;3.80;;
77880;SDS011;67077;50.298;18.996;2023-07-28T08:35:25;4.80;;;3.70;;
77880;SDS011;67077;50.298;18.996;2023-07-28T08:37:51;6.80;;;4.00;;
77880;SDS011;67077;50.298;18.996;2023-07-28T08:40:18;7.10;;;4.00;;
77880;SDS011;67077;50.298;18.996;2023-07-28T08:42:45;8.50;;;3.90;;
77880;SDS011;67077;50.298;18.996;2023-07-28T08:45:12;7.70;;;3.60;;
77880;SDS011;67077;50.298;18.996;2023-07-28T08:47:39;5.20;;;3.60;;
77880;SDS011;67077;50.298;18.996;2023-07-28T08:50:06;5.40;;;3.30;;
77880;SDS011;67077;50.298;18.996;2023-07-28T08:52:33;5.20;;;3.60;;
77880;SDS011;67077;50.298;18.996;2023-07-28T08:55:01;4.80;;;3.60;;
77880;SDS011;67077;50.298;18.996;2023-07-28T08:57:28;6.00;;;3.70;;
77880;SDS011;67077;50.298;18.996;2023-07-28T08:59:54;5.90;;;3.80;;
77880;SDS011;67077;50.298;18.996;2023-07-28T09:02:21;7.10;;;3.70;;
77880;SDS011;67077;50.298;18.996;2023-07-28T09:04:48;4.20;;;3.60;;
77880;SDS011;67077;50.298;18.996;2023-07-28T09:07:15;5.20;;;3.80;;
77880;SDS011;67077;50.298;18.996;2023-07-28T09:09:42;6.90;;;4.40;;
77880;SDS011;67077;50.298;18.996;2023-07-28T09:12:09;5.90;;;4.40;;
77880;SDS011;67077;50.298;18.996;2023-07-28T09:14:36;6.30;;;3.90;;
77880;SDS011;67077;50.298;18.996;2023-07-28T09:17:11;5.20;;;3.80;;
77880;SDS011;67077;50.298;18.996;2023-07-28T09:19:49;5.30;;;4.10;;
77880;SDS011;67077;50.298;18.996;2023-07-28T09:22:23;5.40;;;3.70;;
77880;SDS011;67077;50.298;18.996;2023-07-28T09:24:50;7.00;;;4.00;;
77880;SDS011;67077;50.298;18.996;2023-07-28T09:27:21;5.00;;;4.00;;
77880;SDS011;67077;50.298;18.996;2023-07-28T09:29:53;6.40;;;4.10;;
77880;SDS011;67077;50.298;18.996;2023-07-28T09:32:28;5.10;;;4.10;;
77880;SDS011;67077;50.298;18.996;2023-07-28T09:37:33;6.00;;;4.30;;
77880;SDS011;67077;50.298;18.996;2023-07-28T09:40:01;7.40;;;4.30;;
77880;SDS011;67077;50.298;18.996;2023-07-28T09:42:31;10.20;;;4.10;;
77880;SDS011;67077;50.298;18.996;2023-07-28T09:44:58;5.70;;;4.00;;
77880;SDS011;67077;50.298;18.996;2023-07-28T09:47:24;6.30;;;4.10;;
77880;SDS011;67077;50.298;18.996;2023-07-28T09:49:52;8.10;;;4.30;;
77880;SDS011;67077;50.298;18.996;2023-07-28T09:52:21;7.40;;;4.00;;
77880;SDS011;67077;50.298;18.996;2023-07-28T09:54:50;6.10;;;4.10;;
77880;SDS011;67077;50.298;18.996;2023-07-28T09:57:23;5.70;;;4.00;;
77880;SDS011;67077;50.298;18.996;2023-07-28T09:59:51;8.50;;;4.20;;
77880;SDS011;67077;50.298;18.996;2023-07-28T10:02:22;7.20;;;3.90;;
77880;SDS011;67077;50.298;18.996;2023-07-28T10:04:49;7.90;;;4.50;;
77880;SDS011;67077;50.298;18.996;2023-07-28T10:07:16;7.90;;;4.40;;
77880;SDS011;67077;50.298;18.996;2023-07-28T10:09:42;6.70;;;3.80;;
77880;SDS011;67077;50.298;18.996;2023-07-28T10:12:17;5.00;;;3.30;;
77880;SDS011;67077;50.298;18.996;2023-07-28T10:14:45;7.20;;;3.80;;
77880;SDS011;67077;50.298;18.996;2023-07-28T10:17:16;4.50;;;3.70;;
77880;SDS011;67077;50.298;18.996;2023-07-28T10:19:43;5.20;;;3.60;;
77880;SDS011;67077;50.298;18.996;2023-07-28T10:22:11;5.30;;;3.70;;
77880;SDS011;67077;50.298;18.996;2023-07-28T10:24:54;5.80;;;3.70;;
77880;SDS011;67077;50.298;18.996;2023-07-28T10:30:09;5.40;;;3.50;;
77880;SDS011;67077;50.298;18.996;2023-07-28T10:32:41;4.60;;;3.50;;
77880;SDS011;67077;50.298;18.996;2023-07-28T10:37:39;6.10;;;3.70;;
77880;SDS011;67077;50.298;18.996;2023-07-28T10:40:53;5.70;;;3.60;;
77880;SDS011;67077;50.298;18.996;2023-07-28T10:43:05;5.20;;;3.30;;
77880;SDS011;67077;50.298;18.996;2023-07-28T10:45:32;4.40;;;3.10;;
77880;SDS011;67077;50.298;18.996;2023-07-28T10:47:59;4.30;;;3.40;;
77880;SDS011;67077;50.298;18.996;2023-07-28T10:50:30;4.30;;;3.40;;
77880;SDS011;67077;50.298;18.996;2023-07-28T10:52:57;5.30;;;3.80;;
77880;SDS011;67077;50.298;18.996;2023-07-28T10:55:25;5.50;;;3.60;;
77880;SDS011;67077;50.298;18.996;2023-07-28T10:57:56;4.40;;;3.20;;
77880;SDS011;67077;50.298;18.996;2023-07-28T11:00:24;6.50;;;3.40;;
77880;SDS011;67077;50.298;18.996;2023-07-28T11:02:51;6.90;;;3.60;;
77880;SDS011;67077;50.298;18.996;2023-07-28T11:05:23;4.80;;;3.40;;
77880;SDS011;67077;50.298;18.996;2023-07-28T11:07:51;7.00;;;3.20;;
77880;SDS011;67077;50.298;18.996;2023-07-28T11:10:21;5.20;;;3.00;;
77880;SDS011;67077;50.298;18.996;2023-07-28T11:12:49;3.90;;;2.90;;
77880;SDS011;67077;50.298;18.996;2023-07-28T11:15:17;4.40;;;2.90;;
77880;SDS011;67077;50.298;18.996;2023-07-28T11:17:49;4.50;;;2.80;;
77880;SDS011;67077;50.298;18.996;2023-07-28T11:22:44;5.10;;;2.80;;
77880;SDS011;67077;50.298;18.996;2023-07-28T11:25:12;4.10;;;2.50;;
77880;SDS011;67077;50.298;18.996;2023-07-28T11:27:39;3.40;;;2.60;;
77880;SDS011;67077;50.298;18.996;2023-07-28T11:30:09;4.10;;;2.60;;
77880;SDS011;67077;50.298;18.996;2023-07-28T11:32:36;4.30;;;2.60;;
77880;SDS011;67077;50.298;18.996;2023-07-28T11:35:07;5.10;;;2.60;;
77880;SDS011;67077;50.298;18.996;2023-07-28T11:37:36;3.40;;;2.60;;
77880;SDS011;67077;50.298;18.996;2023-07-28T11:40:04;3.00;;;2.40;;
77880;SDS011;67077;50.298;18.996;2023-07-28T11:42:37;3.80;;;2.40;;
77880;SDS011;67077;50.298;18.996;2023-07-28T11:45:05;2.40;;;2.20;;
77880;SDS011;67077;50.298;18.996;2023-07-28T11:47:32;5.20;;;2.20;;
77880;SDS011;67077;50.298;18.996;2023-07-28T11:49:59;2.70;;;2.30;;
77880;SDS011;67077;50.298;18.996;2023-07-28T11:52:33;3.80;;;2.30;;
77880;SDS011;67077;50.298;18.996;2023-07-28T11:55:05;4.00;;;2.20;;
77880;SDS011;67077;50.298;18.996;2023-07-28T11:57:32;3.60;;;2.10;;
77880;SDS011;67077;50.298;18.996;2023-07-28T11:59:59;2.90;;;2.40;;
77880;SDS011;67077;50.298;18.996;2023-07-28T12:02:27;3.60;;;2.50;;
77880;SDS011;67077;50.298;18.996;2023-07-28T12:04:55;4.10;;;2.10;;
77880;SDS011;67077;50.298;18.996;2023-07-28T12:07:28;4.10;;;2.30;;
77880;SDS011;67077;50.298;18.996;2023-07-28T12:10:05;3.80;;;2.30;;
77880;SDS011;67077;50.298;18.996;2023-07-28T12:12:42;4.10;;;2.20;;
77880;SDS011;67077;50.298;18.996;2023-07-28T12:20:35;3.40;;;2.10;;
77880;SDS011;67077;50.298;18.996;2023-07-28T12:23:13;2.10;;;1.80;;
77880;SDS011;67077;50.298;18.996;2023-07-28T12:25:41;4.00;;;1.70;;
77880;SDS011;67077;50.298;18.996;2023-07-28T12:28:09;2.90;;;1.70;;
77880;SDS011;67077;50.298;18.996;2023-07-28T12:30:36;1.70;;;1.50;;
77880;SDS011;67077;50.298;18.996;2023-07-28T12:33:04;1.90;;;1.50;;
77880;SDS011;67077;50.298;18.996;2023-07-28T12:35:31;1.70;;;1.30;;
77880;SDS011;67077;50.298;18.996;2023-07-28T12:38:01;2.00;;;1.50;;
77880;SDS011;67077;50.298;18.996;2023-07-28T12:40:32;2.00;;;1.50;;
77880;SDS011;67077;50.298;18.996;2023-07-28T12:43:01;3.60;;;1.70;;
77880;SDS011;67077;50.298;18.996;2023-07-28T12:45:29;4.20;;;2.00;;
77880;SDS011;67077;50.298;18.996;2023-07-28T12:47:55;2.40;;;1.90;;
77880;SDS011;67077;50.298;18.996;2023-07-28T12:50:22;2.60;;;1.80;;
77880;SDS011;67077;50.298;18.996;2023-07-28T12:52:50;4.40;;;2.30;;
77880;SDS011;67077;50.298;18.996;2023-07-28T12:55:17;3.30;;;1.70;;
77880;SDS011;67077;50.298;18.996;2023-07-28T12:57:44;3.00;;;1.90;;
77880;SDS011;67077;50.298;18.996;2023-07-28T13:00:15;3.00;;;1.50;;
77880;SDS011;67077;50.298;18.996;2023-07-28T13:02:43;3.00;;;1.90;;
77880;SDS011;67077;50.298;18.996;2023-07-28T13:05:12;2.30;;;1.70;;
77880;SDS011;67077;50.298;18.996;2023-07-28T13:07:40;2.80;;;1.70;;
77880;SDS011;67077;50.298;18.996;2023-07-28T13:10:08;2.40;;;1.90;;
77880;SDS011;67077;50.298;18.996;2023-07-28T13:12:37;2.50;;;1.90;;
77880;SDS011;67077;50.298;18.996;2023-07-28T13:15:04;3.30;;;2.30;;
77880;SDS011;67077;50.298;18.996;2023-07-28T13:17:31;2.20;;;1.70;;
77880;SDS011;67077;50.298;18.996;2023-07-28T13:19:58;4.10;;;1.80;;
77880;SDS011;67077;50.298;18.996;2023-07-28T13:22:25;2.00;;;1.50;;
77880;SDS011;67077;50.298;18.996;2023-07-28T13:24:53;2.90;;;1.60;;
77880;SDS011;67077;50.298;18.996;2023-07-28T13:27:20;2.10;;;1.40;;
77880;SDS011;67077;50.298;18.996;2023-07-28T13:29:46;3.20;;;1.60;;
77880;SDS011;67077;50.298;18.996;2023-07-28T13:32:17;2.20;;;1.50;;
77880;SDS011;67077;50.298;18.996;2023-07-28T13:34:45;3.10;;;1.40;;
77880;SDS011;67077;50.298;18.996;2023-07-28T13:37:11;4.10;;;1.70;;
77880;SDS011;67077;50.298;18.996;2023-07-28T13:39:39;2.80;;;1.80;;
77880;SDS011;67077;50.298;18.996;2023-07-28T13:42:05;1.60;;;1.30;;
77880;SDS011;67077;50.298;18.996;2023-07-28T13:44:32;3.30;;;1.30;;
77880;SDS011;67077;50.298;18.996;2023-07-28T13:46:58;1.40;;;1.30;;
77880;SDS011;67077;50.298;18.996;2023-07-28T13:49:25;3.40;;;1.70;;
77880;SDS011;67077;50.298;18.996;2023-07-28T13:51:52;1.30;;;1.20;;
77880;SDS011;67077;50.298;18.996;2023-07-28T13:54:18;10.80;;;5.00;;
77880;SDS011;67077;50.298;18.996;2023-07-28T13:56:45;8.80;;;3.90;;
77880;SDS011;67077;50.298;18.996;2023-07-28T13:59:12;5.80;;;2.80;;
77880;SDS011;67077;50.298;18.996;2023-07-28T14:01:38;2.40;;;1.70;;
77880;SDS011;67077;50.298;18.996;2023-07-28T14:04:05;3.30;;;1.40;;
77880;SDS011;67077;50.298;18.996;2023-07-28T14:06:31;1.40;;;1.30;;
77880;SDS011;67077;50.298;18.996;2023-07-28T14:08:58;1.70;;;1.50;;
77880;SDS011;67077;50.298;18.996;2023-07-28T14:11:25;3.40;;;2.10;;
77880;SDS011;67077;50.298;18.996;2023-07-28T14:13:51;2.80;;;2.20;;
77880;SDS011;67077;50.298;18.996;2023-07-28T14:16:18;2.10;;;1.70;;
77880;SDS011;67077;50.298;18.996;2023-07-28T14:18:44;1.70;;;1.40;;
77880;SDS011;67077;50.298;18.996;2023-07-28T14:21:14;2.10;;;1.70;;
77880;SDS011;67077;50.298;18.996;2023-07-28T14:23:40;4.40;;;1.70;;
77880;SDS011;67077;50.298;18.996;2023-07-28T14:26:07;1.90;;;1.60;;
77880;SDS011;67077;50.298;18.996;2023-07-28T14:28:34;2.40;;;1.50;;
77880;SDS011;67077;50.298;18.996;2023-07-28T14:31:01;3.90;;;1.60;;
77880;SDS011;67077;50.298;18.996;2023-07-28T14:33:28;4.20;;;1.80;;
77880;SDS011;67077;50.298;18.996;2023-07-28T14:35:55;3.10;;;1.50;;
77880;SDS011;67077;50.298;18.996;2023-07-28T14:38:22;2.10;;;1.70;;
77880;SDS011;67077;50.298;18.996;2023-07-28T14:40:48;4.10;;;1.70;;
77880;SDS011;67077;50.298;18.996;2023-07-28T14:43:18;1.40;;;1.30;;
77880;SDS011;67077;50.298;18.996;2023-07-28T14:45:48;1.40;;;1.20;;
77880;SDS011;67077;50.298;18.996;2023-07-28T14:48:17;2.20;;;1.40;;
77880;SDS011;67077;50.298;18.996;2023-07-28T14:50:45;1.50;;;1.40;;
77880;SDS011;67077;50.298;18.996;2023-07-28T14:53:32;1.70;;;1.30;;
77880;SDS011;67077;50.298;18.996;2023-07-28T14:56:02;3.10;;;1.70;;